Terminal Aerodrome Forecast
Issued by NWS Wilmington, OH

Current Version | Previous Version | Graphics & Text | Print | Product List | Glossary On
Versions: 1 2 3 4 5 6 7 8 9 10 11 12 13 14 15 16 17 18 19
000
FTUS41 KILN 280800 AAA
TAFCMH
TAF AMD
KCMH 280808Z 2808/2906 35010KT P6SM BKN050
      TEMPO 2808/2810 BKN020
     FM281000 35010KT P6SM FEW030
     FM290000 VRB03KT P6SM SKC=

USA.gov is the U.S. government's official web portal to all federal, state and local government web resources and services.